createdAt,value
2023-02-24T00:01:24.990Z,2.15
2023-02-24T00:03:53.281Z,2.13
2023-02-24T00:06:20.993Z,1.90
2023-02-24T00:08:48.658Z,1.63
2023-02-24T00:11:18.882Z,2.35
2023-02-24T00:13:48.263Z,3.28
2023-02-24T00:16:17.925Z,3.05
2023-02-24T00:18:46.485Z,4.18
2023-02-24T00:21:15.498Z,4.25
2023-02-24T00:23:43.700Z,4.80
2023-02-24T00:26:12.157Z,4.10
2023-02-24T00:28:40.147Z,4.97
2023-02-24T00:31:11.212Z,3.40
2023-02-24T00:33:39.665Z,4.43
2023-02-24T00:36:08.481Z,4.78
2023-02-24T00:38:36.962Z,4.30
2023-02-24T00:41:14.427Z,3.20
2023-02-24T00:43:46.818Z,10.95
2023-02-24T00:46:17.698Z,4.80
2023-02-24T00:48:46.996Z,4.28
2023-02-24T00:51:18.013Z,3.70
2023-02-24T00:53:45.772Z,2.45
2023-02-24T00:56:13.383Z,2.38
2023-02-24T00:58:41.113Z,3.20
2023-02-24T01:01:14.317Z,2.67
2023-02-24T01:03:43.626Z,2.63
2023-02-24T01:06:12.338Z,2.35
2023-02-24T01:08:47.375Z,2.45
2023-02-24T01:11:33.863Z,2.95
2023-02-24T01:14:01.573Z,3.40
2023-02-24T01:16:29.200Z,3.05
2023-02-24T01:18:58.189Z,2.90
2023-02-24T01:21:25.767Z,2.83
2023-02-24T01:23:55.054Z,2.80
2023-02-24T01:26:23.114Z,3.33
2023-02-24T01:28:51.496Z,2.90
2023-02-24T01:31:21.401Z,2.60
2023-02-24T01:33:50.019Z,2.90
2023-02-24T01:36:21.110Z,1.88
2023-02-24T01:38:50.094Z,1.90
2023-02-24T01:44:33.246Z,2.13
2023-02-24T01:47:01.471Z,2.05
2023-02-24T01:49:33.101Z,2.20
2023-02-24T01:52:04.853Z,2.38
2023-02-24T01:54:34.432Z,2.75
2023-02-24T01:57:05.713Z,2.65
2023-02-24T01:59:35.544Z,1.83
2023-02-24T02:02:05.093Z,2.13
2023-02-24T02:04:36.527Z,2.17
2023-02-24T02:07:05.735Z,1.83
2023-02-24T02:09:34.122Z,1.95
2023-02-24T02:12:01.727Z,2.65
2023-02-24T02:14:32.126Z,1.75
2023-02-24T02:17:08.932Z,2.42
2023-02-24T02:19:47.087Z,1.95
2023-02-24T02:22:26.584Z,1.50
2023-02-24T02:24:55.307Z,1.63
2023-02-24T02:27:32.078Z,1.60
2023-02-24T02:30:14.542Z,2.03
2023-02-24T02:33:01.816Z,1.67
2023-02-24T02:35:36.830Z,2.03
2023-02-24T02:38:09.356Z,2.15
2023-02-24T02:40:41.858Z,1.83
2023-02-24T02:43:16.149Z,1.70
2023-02-24T02:45:47.707Z,1.90
2023-02-24T02:48:17.967Z,1.75
2023-02-24T02:50:49.236Z,1.35
2023-02-24T02:53:20.435Z,1.67
2023-02-24T02:55:49.435Z,2.20
2023-02-24T02:58:20.113Z,1.38
2023-02-24T03:00:59.033Z,1.60
2023-02-24T03:03:28.041Z,2.50
2023-02-24T03:05:58.348Z,1.35
2023-02-24T03:08:27.000Z,1.40
2023-02-24T03:10:55.003Z,2.92
2023-02-24T03:13:24.103Z,1.85
2023-02-24T03:15:52.972Z,2.17
2023-02-24T03:18:25.614Z,1.52
2023-02-24T03:20:57.327Z,2.33
2023-02-24T03:23:30.119Z,1.08
2023-02-24T03:25:59.772Z,1.50
2023-02-24T03:28:34.068Z,1.60
2023-02-24T03:31:03.788Z,1.58
2023-02-24T03:33:35.360Z,1.55
2023-02-24T03:36:03.223Z,2.05
2023-02-24T03:38:34.122Z,2.08
2023-02-24T03:41:01.801Z,1.70
2023-02-24T03:43:30.695Z,1.92
2023-02-24T03:45:59.507Z,1.60
2023-02-24T03:48:28.214Z,2.15
2023-02-24T03:50:56.663Z,1.90
2023-02-24T03:53:31.560Z,1.73
2023-02-24T03:56:11.102Z,1.73
2023-02-24T03:58:44.104Z,1.52
2023-02-24T04:01:14.129Z,1.73
2023-02-24T04:03:47.670Z,1.95
2023-02-24T04:06:20.007Z,1.50
2023-02-24T04:08:52.140Z,1.83
2023-02-24T04:11:24.201Z,1.90
2023-02-24T04:13:53.074Z,1.23
2023-02-24T04:16:29.146Z,1.92
2023-02-24T04:18:59.261Z,1.58
2023-02-24T04:21:30.395Z,1.95
2023-02-24T04:23:58.917Z,1.65
2023-02-24T04:26:28.525Z,2.05
2023-02-24T04:28:56.367Z,2.13
2023-02-24T04:31:26.381Z,2.55
2023-02-24T04:33:54.377Z,2.35
2023-02-24T04:36:22.729Z,2.20
2023-02-24T04:38:50.717Z,1.80
2023-02-24T04:41:21.489Z,1.90
2023-02-24T04:43:51.836Z,2.10
2023-02-24T04:46:19.820Z,2.15
2023-02-24T04:48:47.512Z,1.75
2023-02-24T04:51:15.578Z,4.35
2023-02-24T04:53:43.389Z,3.92
2023-02-24T04:56:11.119Z,3.45
2023-02-24T04:58:39.755Z,1.58
2023-02-24T05:01:11.676Z,1.42
2023-02-24T05:03:42.589Z,1.50
2023-02-24T05:06:14.417Z,2.30
2023-02-24T05:08:42.072Z,3.38
2023-02-24T05:11:15.899Z,2.40
2023-02-24T05:13:46.190Z,2.17
2023-02-24T05:16:17.679Z,1.70
2023-02-24T05:18:45.710Z,2.80
2023-02-24T05:21:32.417Z,2.83
2023-02-24T05:24:05.005Z,2.30
2023-02-24T05:26:35.872Z,2.28
2023-02-24T05:29:04.699Z,1.80
2023-02-24T05:31:33.716Z,1.90
2023-02-24T05:34:02.721Z,2.30
2023-02-24T05:36:31.887Z,1.88
2023-02-24T05:39:06.739Z,3.22
2023-02-24T05:41:36.044Z,2.15
2023-02-24T05:44:08.583Z,2.10
2023-02-24T05:46:41.148Z,2.58
2023-02-24T05:49:14.324Z,2.50
2023-02-24T05:51:43.667Z,1.98
2023-02-24T05:54:13.055Z,2.40
2023-02-24T05:56:43.928Z,2.08
2023-02-24T05:59:13.058Z,1.85
2023-02-24T06:01:42.592Z,2.50
2023-02-24T06:04:10.667Z,1.95
2023-02-24T06:06:39.480Z,1.60
2023-02-24T06:09:12.955Z,2.25
2023-02-24T06:11:41.760Z,2.22
2023-02-24T06:14:09.994Z,2.78
2023-02-24T06:16:39.999Z,2.55
2023-02-24T06:19:10.356Z,2.90
2023-02-24T06:21:41.494Z,1.92
2023-02-24T06:24:14.511Z,2.22
2023-02-24T06:26:43.370Z,2.67
2023-02-24T06:29:15.242Z,2.70
2023-02-24T06:31:43.709Z,2.33
2023-02-24T06:34:13.154Z,2.58
2023-02-24T06:36:40.782Z,2.50
2023-02-24T06:39:09.124Z,2.65
2023-02-24T06:41:37.978Z,2.88
2023-02-24T06:44:05.599Z,2.75
2023-02-24T06:46:33.341Z,2.55
2023-02-24T06:49:01.089Z,2.88
2023-02-24T06:51:30.926Z,2.63
2023-02-24T06:53:59.541Z,2.88
2023-02-24T06:56:27.746Z,2.42
2023-02-24T06:58:56.856Z,3.03
2023-02-24T07:01:26.082Z,2.35
2023-02-24T07:04:17.777Z,3.63
2023-02-24T07:06:47.839Z,2.42
2023-02-24T07:09:16.688Z,3.20
2023-02-24T07:11:46.869Z,3.10
2023-02-24T07:14:14.671Z,2.67
2023-02-24T07:16:45.490Z,2.30
2023-02-24T07:19:14.160Z,3.05
2023-02-24T07:21:43.467Z,2.55
2023-02-24T07:24:13.401Z,2.63
2023-02-24T07:26:42.267Z,2.70
2023-02-24T07:29:11.461Z,2.40
2023-02-24T07:31:39.905Z,2.63
2023-02-24T07:34:07.797Z,2.85
2023-02-24T07:36:48.491Z,2.10
2023-02-24T07:39:18.381Z,2.25
2023-02-24T07:41:49.452Z,2.97
2023-02-24T07:44:17.849Z,2.90
2023-02-24T07:46:45.590Z,3.28
2023-02-24T07:49:14.805Z,2.53
2023-02-24T07:51:43.255Z,3.15
2023-02-24T07:54:11.558Z,2.78
2023-02-24T07:56:46.225Z,2.33
2023-02-24T07:59:15.881Z,2.03
2023-02-24T08:01:49.897Z,2.33
2023-02-24T08:04:19.027Z,2.70
2023-02-24T08:06:50.337Z,2.70
2023-02-24T08:09:19.254Z,3.00
2023-02-24T08:11:52.263Z,2.90
2023-02-24T08:14:20.313Z,2.17
2023-02-24T08:16:49.082Z,2.55
2023-02-24T08:19:20.986Z,2.42
2023-02-24T08:21:50.507Z,3.08
2023-02-24T08:24:18.982Z,2.55
2023-02-24T08:27:03.934Z,2.97
2023-02-24T08:29:31.912Z,2.87
2023-02-24T08:31:59.786Z,2.25
2023-02-24T08:34:31.829Z,3.55
2023-02-24T08:37:00.460Z,2.70
2023-02-24T08:39:30.257Z,2.15
2023-02-24T08:41:59.495Z,2.67
2023-02-24T08:44:28.098Z,2.58
2023-02-24T08:46:56.391Z,1.98
2023-02-24T08:49:25.539Z,3.28
2023-02-24T08:51:54.007Z,2.40
2023-02-24T08:54:27.356Z,2.03
2023-02-24T08:56:56.885Z,2.40
2023-02-24T08:59:46.280Z,2.42
2023-02-24T09:02:24.385Z,1.92
2023-02-24T09:04:54.021Z,2.45
2023-02-24T09:07:23.124Z,1.63
2023-02-24T09:09:56.399Z,2.35
2023-02-24T09:12:25.617Z,2.90
2023-02-24T09:14:56.586Z,2.45
2023-02-24T09:17:40.253Z,2.00
2023-02-24T09:20:49.060Z,1.60
2023-02-24T09:23:20.984Z,1.40
2023-02-24T09:25:50.579Z,1.50
2023-02-24T09:28:19.030Z,1.85
2023-02-24T09:30:53.463Z,2.28
2023-02-24T09:33:23.080Z,2.20
2023-02-24T09:36:03.008Z,1.55
2023-02-24T09:38:49.379Z,2.03
2023-02-24T09:41:32.172Z,2.10
2023-02-24T09:44:07.722Z,1.83
2023-02-24T09:46:40.487Z,2.20
2023-02-24T09:49:13.824Z,1.35
2023-02-24T09:51:43.476Z,2.00
2023-02-24T09:54:18.434Z,1.85
2023-02-24T09:56:57.275Z,1.70
2023-02-24T09:59:28.342Z,1.88
2023-02-24T10:02:02.988Z,1.60
2023-02-24T10:04:49.345Z,1.67
2023-02-24T10:07:19.053Z,1.48
2023-02-24T10:09:49.887Z,1.75
2023-02-24T10:12:19.275Z,1.88
2023-02-24T10:14:53.011Z,1.58
2023-02-24T10:17:24.542Z,1.55
2023-02-24T10:20:00.166Z,2.60
2023-02-24T10:22:39.867Z,1.85
2023-02-24T10:25:21.484Z,2.20
2023-02-24T10:27:57.907Z,1.83
2023-02-24T10:30:40.800Z,1.50
2023-02-24T10:33:20.619Z,2.10
2023-02-24T10:35:50.197Z,3.10
2023-02-24T10:38:17.801Z,2.38
2023-02-24T10:40:47.270Z,1.67
2023-02-24T10:43:17.857Z,1.52
2023-02-24T10:45:46.304Z,2.15
2023-02-24T10:48:41.416Z,2.20
2023-02-24T10:51:12.390Z,2.22
2023-02-24T10:53:41.021Z,2.63
2023-02-24T10:56:27.076Z,2.15
2023-02-24T10:59:20.659Z,2.63
2023-02-24T11:01:59.231Z,3.10
2023-02-24T11:04:53.987Z,2.40
2023-02-24T11:07:43.839Z,3.55
2023-02-24T11:10:13.787Z,3.38
2023-02-24T11:13:09.163Z,2.25
2023-02-24T11:15:54.835Z,3.28
2023-02-24T11:18:24.292Z,2.95
2023-02-24T11:20:55.481Z,2.33
2023-02-24T11:23:24.626Z,2.10
2023-02-24T11:25:53.496Z,2.80
2023-02-24T11:28:39.995Z,2.42
2023-02-24T11:31:14.539Z,2.95
2023-02-24T11:33:47.426Z,2.85
2023-02-24T11:36:25.570Z,3.22
2023-02-24T11:39:15.446Z,2.67
2023-02-24T11:41:46.724Z,3.15
2023-02-24T11:44:20.699Z,2.65
2023-02-24T11:46:50.057Z,2.67
2023-02-24T11:49:23.087Z,2.65
2023-02-24T11:51:53.224Z,2.85
2023-02-24T11:54:20.846Z,3.17
2023-02-24T11:56:52.022Z,2.70
2023-02-24T11:59:22.317Z,2.60
2023-02-24T12:01:53.546Z,2.88
2023-02-24T12:04:24.446Z,2.78
2023-02-24T12:06:58.147Z,2.88
2023-02-24T12:09:27.815Z,2.78
2023-02-24T12:11:58.105Z,2.75
2023-02-24T12:14:31.902Z,2.92
2023-02-24T12:17:07.816Z,2.60
2023-02-24T12:19:39.341Z,2.90
2023-02-24T12:22:12.960Z,2.60
2023-02-24T12:24:47.344Z,3.05
2023-02-24T12:27:18.524Z,2.70
2023-02-24T12:29:54.655Z,2.70
2023-02-24T12:32:31.291Z,2.22
2023-02-24T12:35:06.680Z,2.78
2023-02-24T12:40:11.976Z,2.78
2023-02-24T12:42:44.173Z,2.60
2023-02-24T12:45:15.913Z,3.33
2023-02-24T12:47:51.149Z,3.25
2023-02-24T12:50:27.350Z,3.30
2023-02-24T12:52:59.201Z,3.05
2023-02-24T12:55:29.804Z,2.83
2023-02-24T12:58:01.146Z,3.60
2023-02-24T13:00:32.061Z,2.53
2023-02-24T13:03:04.172Z,2.63
2023-02-24T13:05:35.108Z,2.95
2023-02-24T13:08:10.389Z,2.45
2023-02-24T13:10:43.549Z,3.25
2023-02-24T13:13:14.382Z,3.00
2023-02-24T13:15:50.056Z,4.30
2023-02-24T13:18:24.982Z,3.75
2023-02-24T13:21:03.188Z,5.68
2023-02-24T13:23:32.795Z,3.83
2023-02-24T13:26:01.861Z,4.40
2023-02-24T13:28:31.260Z,3.83
2023-02-24T13:30:59.950Z,3.33
2023-02-24T13:33:30.496Z,4.53
2023-02-24T13:36:22.741Z,3.83
2023-02-24T13:38:56.449Z,4.95
2023-02-24T13:41:35.377Z,4.57
2023-02-24T13:44:04.610Z,6.25
2023-02-24T13:46:36.117Z,4.13
2023-02-24T13:49:29.411Z,6.25
2023-02-24T13:52:00.341Z,8.70
2023-02-24T13:54:45.680Z,6.32
2023-02-24T13:57:26.867Z,8.80
2023-02-24T14:00:02.788Z,9.07
2023-02-24T14:02:31.820Z,10.60
2023-02-24T14:05:00.530Z,10.40
2023-02-24T14:07:29.452Z,9.52
2023-02-24T14:09:58.531Z,10.95
2023-02-24T14:12:28.612Z,8.45
2023-02-24T14:14:56.657Z,7.75
2023-02-24T14:17:28.638Z,7.70
2023-02-24T14:19:57.424Z,6.75
2023-02-24T14:22:25.138Z,6.72
2023-02-24T14:25:01.884Z,8.25
2023-02-24T14:27:30.941Z,6.35
2023-02-24T14:29:58.662Z,6.75
2023-02-24T14:32:27.889Z,6.50
2023-02-24T14:34:56.018Z,5.88
2023-02-24T14:37:27.526Z,8.52
2023-02-24T14:39:56.054Z,7.00
2023-02-24T14:42:24.019Z,7.43
2023-02-24T14:44:54.102Z,6.82
2023-02-24T14:47:22.776Z,9.35
2023-02-24T14:49:53.930Z,7.88
2023-02-24T14:52:26.616Z,8.68
2023-02-24T14:54:57.127Z,8.43
2023-02-24T14:57:25.930Z,8.48
2023-02-24T14:59:56.607Z,7.93
2023-02-24T15:02:28.790Z,6.78
2023-02-24T15:04:56.948Z,8.13
2023-02-24T15:07:26.274Z,7.43
2023-02-24T15:09:54.875Z,7.68
2023-02-24T15:12:24.398Z,9.55
2023-02-24T15:14:53.338Z,9.70
2023-02-24T15:17:23.233Z,7.40
2023-02-24T15:19:56.652Z,6.43
2023-02-24T15:22:26.024Z,7.90
2023-02-24T15:24:55.780Z,8.00
2023-02-24T15:27:24.961Z,9.30
2023-02-24T15:30:01.084Z,7.90
2023-02-24T15:32:31.158Z,8.90
2023-02-24T15:34:59.093Z,9.13
2023-02-24T15:37:27.514Z,9.45
2023-02-24T15:40:01.939Z,10.05
2023-02-24T15:42:33.673Z,8.77
2023-02-24T15:45:02.419Z,9.82
2023-02-24T15:47:32.532Z,8.70
2023-02-24T15:50:00.474Z,8.90
2023-02-24T15:52:28.933Z,9.50
2023-02-24T15:54:57.969Z,11.55
2023-02-24T15:57:26.104Z,10.82
2023-02-24T15:59:53.765Z,9.23
2023-02-24T16:02:22.739Z,10.50
2023-02-24T16:04:52.635Z,9.40
2023-02-24T16:07:21.482Z,11.38
2023-02-24T16:09:50.711Z,10.30
2023-02-24T16:12:21.750Z,8.93
2023-02-24T16:14:54.161Z,8.73
2023-02-24T16:17:25.938Z,8.88
2023-02-24T16:19:56.907Z,7.60
2023-02-24T16:22:25.080Z,9.13
2023-02-24T16:24:53.790Z,7.60
2023-02-24T16:27:22.366Z,7.85
2023-02-24T16:29:51.215Z,8.93
2023-02-24T16:32:21.584Z,7.20
2023-02-24T16:34:49.427Z,8.77
2023-02-24T16:37:19.730Z,7.40
2023-02-24T16:39:47.702Z,7.57
2023-02-24T16:42:15.321Z,7.82
2023-02-24T16:44:45.544Z,7.68
2023-02-24T16:47:17.744Z,6.72
2023-02-24T16:49:45.550Z,7.57
2023-02-24T16:52:13.738Z,8.52
2023-02-24T16:54:42.769Z,6.95
2023-02-24T16:57:10.543Z,7.63
2023-02-24T16:59:38.169Z,7.25
2023-02-24T17:02:06.004Z,6.57
2023-02-24T17:04:33.747Z,6.40
2023-02-24T17:07:01.467Z,7.63
2023-02-24T17:09:29.992Z,5.97
2023-02-24T17:12:01.141Z,6.65
2023-02-24T17:14:29.037Z,6.78
2023-02-24T17:17:02.403Z,6.78
2023-02-24T17:19:30.057Z,3.75
2023-02-24T17:21:57.730Z,3.15
2023-02-24T17:24:25.382Z,2.65
2023-02-24T17:26:58.764Z,2.00
2023-02-24T17:29:27.965Z,2.95
2023-02-24T17:31:55.799Z,1.92
2023-02-24T17:34:24.238Z,2.00
2023-02-24T17:36:53.693Z,1.70
2023-02-24T17:39:21.327Z,1.90
2023-02-24T17:41:49.093Z,2.50
2023-02-24T17:44:16.755Z,1.95
2023-02-24T17:46:45.883Z,2.80
2023-02-24T17:49:13.542Z,2.80
2023-02-24T17:51:41.215Z,2.75
2023-02-24T17:54:09.000Z,2.65
2023-02-24T17:56:36.654Z,2.67
2023-02-24T17:59:04.308Z,2.65
2023-02-24T18:01:31.981Z,1.98
2023-02-24T18:04:00.951Z,2.45
2023-02-24T18:06:28.728Z,2.53
2023-02-24T18:08:57.175Z,3.28
2023-02-24T18:11:24.972Z,3.33
2023-02-24T18:13:55.145Z,3.85
2023-02-24T18:16:23.146Z,3.30
2023-02-24T18:18:51.706Z,2.53
2023-02-24T18:21:20.695Z,3.67
2023-02-24T18:23:49.678Z,3.10
2023-02-24T18:26:17.521Z,2.72
2023-02-24T18:28:45.525Z,2.40
2023-02-24T18:31:14.231Z,3.05
2023-02-24T18:33:41.988Z,2.47
2023-02-24T18:39:09.041Z,3.08
2023-02-24T18:41:36.878Z,3.10
2023-02-24T18:44:04.484Z,2.72
2023-02-24T18:46:32.194Z,3.10
2023-02-24T18:48:59.898Z,2.85
2023-02-24T18:51:29.346Z,2.63
2023-02-24T18:53:58.406Z,2.30
2023-02-24T18:56:28.924Z,2.70
2023-02-24T18:58:57.873Z,2.80
2023-02-24T19:01:40.065Z,3.45
2023-02-24T19:04:08.446Z,2.50
2023-02-24T19:06:36.785Z,2.92
2023-02-24T19:09:06.134Z,3.25
2023-02-24T19:11:36.129Z,3.35
2023-02-24T19:14:03.908Z,3.92
2023-02-24T19:16:31.927Z,4.45
2023-02-24T19:19:08.701Z,4.85
2023-02-24T19:21:38.854Z,5.05
2023-02-24T19:24:08.466Z,2.47
2023-02-24T19:26:39.957Z,4.53
2023-02-24T19:29:07.626Z,3.38
2023-02-24T19:31:36.050Z,3.22
2023-02-24T19:34:04.626Z,2.85
2023-02-24T19:36:33.734Z,2.65
2023-02-24T19:39:01.469Z,2.03
2023-02-24T19:41:29.431Z,2.55
2023-02-24T19:43:58.392Z,2.53
2023-02-24T19:46:26.512Z,1.88
2023-02-24T19:48:56.840Z,1.77
2023-02-24T19:51:27.163Z,2.80
2023-02-24T19:53:55.260Z,2.25
2023-02-24T19:56:23.642Z,2.97
2023-02-24T19:58:53.300Z,2.83
2023-02-24T20:01:29.638Z,1.98
2023-02-24T20:03:58.316Z,2.13
2023-02-24T20:06:28.858Z,1.77
2023-02-24T20:08:58.058Z,1.83
2023-02-24T20:11:26.355Z,2.58
2023-02-24T20:13:54.209Z,1.40
2023-02-24T20:16:25.045Z,2.33
2023-02-24T20:18:55.279Z,2.15
2023-02-24T20:21:23.150Z,2.05
2023-02-24T20:23:51.069Z,1.73
2023-02-24T20:26:19.051Z,2.00
2023-02-24T20:28:47.152Z,3.95
2023-02-24T20:31:17.083Z,2.15
2023-02-24T20:33:44.822Z,1.70
2023-02-24T20:36:14.882Z,1.85
2023-02-24T20:38:42.658Z,1.58
2023-02-24T20:41:10.327Z,1.67
2023-02-24T20:43:38.015Z,1.58
2023-02-24T20:46:11.863Z,2.00
2023-02-24T20:48:39.512Z,1.98
2023-02-24T20:51:07.471Z,2.10
2023-02-24T20:53:51.068Z,2.30
2023-02-24T20:56:24.845Z,1.92
2023-02-24T20:58:53.933Z,2.03
2023-02-24T21:01:22.401Z,2.08
2023-02-24T21:03:51.539Z,2.00
2023-02-24T21:06:19.247Z,1.75
2023-02-24T21:08:48.280Z,2.03
2023-02-24T21:11:16.451Z,1.90
2023-02-24T21:13:44.881Z,2.05
2023-02-24T21:16:13.459Z,2.20
2023-02-24T21:18:42.280Z,2.38
2023-02-24T21:21:10.606Z,2.08
2023-02-24T21:23:39.053Z,3.25
2023-02-24T21:26:08.414Z,3.13
2023-02-24T21:28:36.177Z,2.08
2023-02-24T21:31:08.201Z,3.42
2023-02-24T21:33:35.897Z,2.47
2023-02-24T21:36:06.569Z,2.78
2023-02-24T21:38:35.321Z,2.22
2023-02-24T21:41:03.472Z,2.78
2023-02-24T21:43:32.467Z,3.92
2023-02-24T21:46:01.717Z,2.10
2023-02-24T21:48:29.467Z,2.75
2023-02-24T21:51:00.303Z,2.92
2023-02-24T21:53:28.607Z,2.55
2023-02-24T21:56:05.887Z,2.75
2023-02-24T21:58:35.469Z,2.97
2023-02-24T22:01:09.114Z,3.08
2023-02-24T22:03:36.823Z,3.03
2023-02-24T22:06:04.756Z,2.70
2023-02-24T22:08:32.403Z,2.42
2023-02-24T22:11:00.628Z,2.20
2023-02-24T22:13:28.765Z,2.30
2023-02-24T22:15:59.119Z,2.88
2023-02-24T22:18:26.984Z,2.90
2023-02-24T22:20:54.756Z,2.78
2023-02-24T22:23:22.386Z,2.55
2023-02-24T22:25:50.052Z,2.30
2023-02-24T22:28:17.983Z,2.40
2023-02-24T22:30:47.576Z,2.35
2023-02-24T22:33:16.665Z,2.83
2023-02-24T22:35:44.270Z,3.22
2023-02-24T22:38:12.001Z,3.30
2023-02-24T22:40:39.643Z,2.60
2023-02-24T22:43:07.615Z,2.60
2023-02-24T22:45:35.220Z,2.53
2023-02-24T22:48:03.010Z,2.25
2023-02-24T22:50:32.084Z,2.65
2023-02-24T22:53:00.739Z,2.42
2023-02-24T22:55:29.353Z,2.90
2023-02-24T22:57:56.942Z,2.72
2023-02-24T23:00:26.372Z,2.08
2023-02-24T23:02:53.991Z,2.58
2023-02-24T23:05:21.649Z,3.03
2023-02-24T23:07:50.682Z,2.22
2023-02-24T23:10:18.570Z,2.33
2023-02-24T23:12:46.162Z,2.25
2023-02-24T23:15:13.845Z,2.60
2023-02-24T23:17:42.296Z,2.80
2023-02-24T23:20:12.806Z,1.80
2023-02-24T23:22:40.526Z,2.95
2023-02-24T23:25:10.536Z,1.98
2023-02-24T23:27:38.669Z,2.50
2023-02-24T23:30:08.032Z,2.50
2023-02-24T23:32:35.755Z,2.63
2023-02-24T23:35:03.650Z,2.22
2023-02-24T23:37:31.554Z,2.72
2023-02-24T23:39:59.255Z,2.25
2023-02-24T23:42:28.637Z,2.50
2023-02-24T23:44:56.275Z,2.35
2023-02-24T23:47:23.963Z,4.63
2023-02-24T23:49:52.006Z,2.75
2023-02-24T23:52:19.630Z,3.40
2023-02-24T23:54:49.839Z,2.50
2023-02-24T23:57:18.690Z,3.08
2023-02-24T23:59:47.876Z,3.40
